createdAt,value
2022-11-28T04:50:44.782Z,3.20
2022-11-28T04:53:19.811Z,3.20
2022-11-28T04:55:52.873Z,3.30
2022-11-28T04:58:26.456Z,3.30
2022-11-28T05:00:56.931Z,3.30
2022-11-28T05:03:29.080Z,3.40
2022-11-28T05:05:59.308Z,3.40
2022-11-28T05:08:27.738Z,3.40
2022-11-28T05:10:56.525Z,3.40
2022-11-28T05:13:24.974Z,3.40
2022-11-28T05:15:53.558Z,3.40
2022-11-28T05:18:22.356Z,3.40
2022-11-28T05:20:50.849Z,3.50
2022-11-28T05:23:20.713Z,3.50
2022-11-28T05:25:49.072Z,3.50
2022-11-28T05:28:17.523Z,3.50
2022-11-28T05:30:46.197Z,3.50
2022-11-28T05:33:14.578Z,3.50
2022-11-28T05:35:43.102Z,3.60
2022-11-28T05:38:13.676Z,3.60
2022-11-28T05:40:44.831Z,3.60
2022-11-28T05:43:13.638Z,3.60
2022-11-28T05:45:42.533Z,3.60
2022-11-28T05:48:11.006Z,3.70
2022-11-28T05:50:41.630Z,3.70
2022-11-28T05:53:11.362Z,3.60
2022-11-28T05:55:41.447Z,3.60
2022-11-28T05:58:11.857Z,3.60
2022-11-28T06:00:40.539Z,3.60
2022-11-28T06:03:09.071Z,3.60
2022-11-28T06:05:43.303Z,3.60
2022-11-28T06:08:13.590Z,3.60
2022-11-28T06:10:42.290Z,3.60
2022-11-28T06:13:12.009Z,3.60
2022-11-28T06:15:45.007Z,3.60
2022-11-28T06:18:13.414Z,3.50
2022-11-28T06:20:41.821Z,3.60
2022-11-28T06:23:10.271Z,3.60
2022-11-28T06:25:38.706Z,3.60
2022-11-28T06:28:07.088Z,3.50
2022-11-28T06:30:37.120Z,3.50
2022-11-28T06:33:05.616Z,3.50
2022-11-28T06:35:34.924Z,3.50
2022-11-28T06:38:03.444Z,3.60
2022-11-28T06:40:32.437Z,3.50
2022-11-28T06:43:00.804Z,3.50
2022-11-28T06:45:29.440Z,5.00
2022-11-28T06:48:00.024Z,3.50
2022-11-28T06:50:28.501Z,3.50
2022-11-28T06:52:57.358Z,3.50
2022-11-28T06:55:25.883Z,3.50
2022-11-28T06:57:54.271Z,3.50
2022-11-28T07:00:22.729Z,3.40
2022-11-28T07:02:51.430Z,3.40
2022-11-28T07:05:27.824Z,3.40
2022-11-28T07:07:58.491Z,3.40
2022-11-28T07:10:29.056Z,3.40
2022-11-28T07:13:02.405Z,3.30
2022-11-28T07:15:33.580Z,3.30
2022-11-28T07:18:02.103Z,3.30
2022-11-28T07:20:31.834Z,3.30
2022-11-28T07:23:00.089Z,3.30
2022-11-28T07:25:28.442Z,3.40
2022-11-28T07:27:56.817Z,3.40
2022-11-28T07:30:25.274Z,3.40
2022-11-28T07:32:53.916Z,3.40
2022-11-28T07:35:22.482Z,3.40
2022-11-28T07:37:53.606Z,3.40
2022-11-28T07:40:23.285Z,3.40
2022-11-28T07:42:52.121Z,3.50
2022-11-28T07:45:20.715Z,3.50
2022-11-28T07:47:50.236Z,3.50
2022-11-28T07:50:19.353Z,3.50
2022-11-28T07:52:49.920Z,3.50
2022-11-28T07:55:19.893Z,3.50
2022-11-28T07:57:48.272Z,3.70
2022-11-28T08:00:18.318Z,3.70
2022-11-28T08:02:46.809Z,3.60
2022-11-28T08:05:15.319Z,3.70
2022-11-28T08:07:44.118Z,3.70
2022-11-28T08:10:12.671Z,3.70
2022-11-28T08:12:42.516Z,3.70
2022-11-28T08:15:13.203Z,3.80
2022-11-28T08:17:41.630Z,3.70
2022-11-28T08:20:10.959Z,3.70
2022-11-28T08:22:39.421Z,3.80
2022-11-28T08:25:08.467Z,3.90
2022-11-28T08:27:36.833Z,3.90
2022-11-28T08:30:08.235Z,4.00
2022-11-28T08:32:36.582Z,4.10
2022-11-28T08:35:05.301Z,4.10
2022-11-28T08:37:33.944Z,4.20
2022-11-28T08:40:02.429Z,4.20
2022-11-28T08:42:30.883Z,4.20
2022-11-28T08:44:59.394Z,4.30
2022-11-28T08:47:29.411Z,4.40
2022-11-28T08:49:57.866Z,4.40
2022-11-28T08:52:26.603Z,4.40
2022-11-28T08:54:56.432Z,4.40
2022-11-28T08:57:24.943Z,4.40
2022-11-28T08:59:53.454Z,4.40
2022-11-28T09:02:25.942Z,4.40
2022-11-28T09:04:56.077Z,4.40
2022-11-28T09:07:24.711Z,4.40
2022-11-28T09:09:53.323Z,4.50
2022-11-28T09:12:21.802Z,4.60
2022-11-28T09:14:50.370Z,4.60
2022-11-28T09:17:18.857Z,4.70
2022-11-28T09:19:47.387Z,4.60
2022-11-28T09:22:17.307Z,4.60
2022-11-28T09:24:45.957Z,4.70
2022-11-28T09:27:14.677Z,4.70
2022-11-28T09:29:43.997Z,4.70
2022-11-28T09:32:12.903Z,4.70
2022-11-28T09:34:41.429Z,4.80
2022-11-28T09:37:09.991Z,4.70
2022-11-28T09:40:04.759Z,4.80
2022-11-28T09:42:33.562Z,4.70
2022-11-28T09:45:06.317Z,4.70
2022-11-28T09:47:38.019Z,4.70
2022-11-28T09:50:11.007Z,4.80
2022-11-28T09:52:46.444Z,4.90
2022-11-28T09:55:22.343Z,4.80
2022-11-28T09:57:52.481Z,4.80
2022-11-28T10:00:23.611Z,4.80
2022-11-28T10:03:21.888Z,4.80
2022-11-28T10:05:59.265Z,4.90
2022-11-28T10:08:39.515Z,4.80
2022-11-28T10:11:21.174Z,4.80
2022-11-28T10:14:07.759Z,4.80
2022-11-28T10:16:49.534Z,4.90
2022-11-28T10:19:52.224Z,5.00
2022-11-28T10:22:17.167Z,5.00
2022-11-28T10:24:50.133Z,5.10
2022-11-28T10:27:25.510Z,5.20
2022-11-28T10:30:02.731Z,5.30
2022-11-28T10:32:38.112Z,5.30
2022-11-28T10:35:08.976Z,5.30
2022-11-28T10:37:40.138Z,5.30
2022-11-28T10:40:24.529Z,5.30
2022-11-28T10:43:00.388Z,5.30
2022-11-28T10:45:36.504Z,5.30
2022-11-28T10:48:38.946Z,5.30
2022-11-28T10:51:19.478Z,5.30
2022-11-28T10:53:54.941Z,5.30
2022-11-28T10:56:35.793Z,5.30
2022-11-28T10:59:15.380Z,5.30
2022-11-28T11:01:49.800Z,5.30
2022-11-28T11:04:21.788Z,5.40
2022-11-28T11:07:16.260Z,5.40
2022-11-28T11:09:47.169Z,5.50
2022-11-28T11:12:22.593Z,5.50
2022-11-28T11:14:52.780Z,5.60
2022-11-28T11:17:36.464Z,5.70
2022-11-28T11:20:35.151Z,5.80
2022-11-28T11:23:14.415Z,5.70
2022-11-28T11:25:50.930Z,5.80
2022-11-28T11:28:42.452Z,5.80
2022-11-28T11:31:29.503Z,5.80
2022-11-28T11:34:04.674Z,5.80
2022-11-28T11:36:34.401Z,5.90
2022-11-28T11:39:24.026Z,5.80
2022-11-28T11:42:10.885Z,5.90
2022-11-28T11:44:39.680Z,6.00
2022-11-28T11:47:11.036Z,6.10
2022-11-28T11:49:42.025Z,5.70
2022-11-28T11:52:19.196Z,6.20
2022-11-28T11:54:59.289Z,6.20
2022-11-28T11:57:33.903Z,6.10
2022-11-28T12:00:08.362Z,6.00
2022-11-28T12:02:42.880Z,5.90
2022-11-28T12:05:15.109Z,5.90
2022-11-28T12:07:53.650Z,5.90
2022-11-28T12:10:26.654Z,5.80
2022-11-28T12:12:56.002Z,5.90
2022-11-28T12:15:32.576Z,5.80
2022-11-28T12:18:16.650Z,5.80
2022-11-28T12:20:57.178Z,5.80
2022-11-28T12:23:44.721Z,5.70
2022-11-28T12:26:22.192Z,5.80
2022-11-28T12:29:09.349Z,5.80
2022-11-28T12:31:48.294Z,5.90
2022-11-28T12:34:29.338Z,5.90
2022-11-28T12:37:06.934Z,6.00
2022-11-28T12:39:42.432Z,6.00
2022-11-28T12:42:28.774Z,6.10
2022-11-28T12:45:19.318Z,6.20
2022-11-28T12:47:59.140Z,6.30
2022-11-28T12:50:34.974Z,6.40
2022-11-28T12:53:25.777Z,6.40
2022-11-28T12:56:04.888Z,6.50
2022-11-28T12:58:39.580Z,6.40
2022-11-28T13:01:25.903Z,6.40
2022-11-28T13:04:04.885Z,6.40
2022-11-28T13:06:43.228Z,6.40
2022-11-28T13:09:28.663Z,6.30
2022-11-28T13:12:11.459Z,6.30
2022-11-28T13:14:49.128Z,6.20
2022-11-28T13:17:33.200Z,6.20
2022-11-28T13:20:12.773Z,6.20
2022-11-28T13:22:54.641Z,6.10
2022-11-28T13:25:30.193Z,6.10
2022-11-28T13:28:08.426Z,6.00
2022-11-28T13:30:45.283Z,6.00
2022-11-28T13:33:38.944Z,6.00
2022-11-28T13:38:35.255Z,5.90
2022-11-28T13:39:14.093Z,5.90
2022-11-28T13:42:21.325Z,5.80
2022-11-28T13:44:45.226Z,5.80
2022-11-28T13:47:29.806Z,5.80
2022-11-28T13:50:36.363Z,5.70
2022-11-28T13:53:21.720Z,5.70
2022-11-28T13:55:53.396Z,5.70
2022-11-28T13:58:25.577Z,5.70
2022-11-28T14:01:09.442Z,5.60
2022-11-28T14:03:48.115Z,5.50
2022-11-28T14:06:20.765Z,5.50
2022-11-28T14:09:06.029Z,5.40
2022-11-28T14:12:04.126Z,5.40
2022-11-28T14:15:06.594Z,5.40
2022-11-28T14:17:52.250Z,4.10
2022-11-28T14:20:29.009Z,5.30
2022-11-28T14:23:15.839Z,5.30
2022-11-28T14:25:47.052Z,5.30
2022-11-28T14:28:25.789Z,5.30
2022-11-28T14:31:06.115Z,5.30
2022-11-28T14:33:38.169Z,5.30
2022-11-28T14:36:24.502Z,4.30
2022-11-28T14:39:08.952Z,5.20
2022-11-28T14:42:11.324Z,5.20
2022-11-28T14:44:50.768Z,5.10
2022-11-28T14:47:28.723Z,5.10
2022-11-28T14:50:29.442Z,5.10
2022-11-28T14:53:43.925Z,5.10
2022-11-28T14:56:24.523Z,5.00
2022-11-28T14:58:59.522Z,4.90
2022-11-28T15:01:42.763Z,4.90
2022-11-28T15:04:35.221Z,4.80
2022-11-28T15:07:05.364Z,4.80
2022-11-28T15:09:42.784Z,4.80
2022-11-28T15:12:22.843Z,4.70
2022-11-28T15:14:56.631Z,4.70
2022-11-28T15:17:31.361Z,4.70
2022-11-28T15:20:03.705Z,4.70
2022-11-28T15:22:39.749Z,4.70
2022-11-28T15:25:20.990Z,4.60
2022-11-28T15:27:49.996Z,4.60
2022-11-28T15:30:22.002Z,4.60
2022-11-28T15:32:54.363Z,4.60
2022-11-28T15:35:23.198Z,4.60
2022-11-28T15:37:54.958Z,4.50
2022-11-28T15:40:28.394Z,4.50
2022-11-28T15:43:01.136Z,4.50
2022-11-28T15:45:31.772Z,4.40
2022-11-28T15:48:05.182Z,4.40
2022-11-28T15:50:35.586Z,4.40
2022-11-28T15:53:16.435Z,4.40
2022-11-28T15:55:46.176Z,4.40
2022-11-28T15:58:21.144Z,4.40
2022-11-28T16:00:56.024Z,4.30
2022-11-28T16:03:30.510Z,4.30
2022-11-28T16:06:00.393Z,4.30
2022-11-28T16:08:31.698Z,4.30
2022-11-28T16:11:02.540Z,4.20
2022-11-28T16:13:32.757Z,4.30
2022-11-28T16:16:04.572Z,4.20
2022-11-28T16:18:37.704Z,4.20
2022-11-28T16:21:06.676Z,4.20
2022-11-28T16:23:38.069Z,4.20
2022-11-28T16:26:08.748Z,4.20
2022-11-28T16:28:39.637Z,4.20
2022-11-28T16:31:24.173Z,4.20
2022-11-28T16:33:54.109Z,4.10
2022-11-28T16:36:25.970Z,4.10
2022-11-28T16:39:06.028Z,4.10
2022-11-28T16:41:37.776Z,4.10
2022-11-28T16:44:08.407Z,4.10
2022-11-28T16:46:40.660Z,4.00
2022-11-28T16:49:33.429Z,4.00
2022-11-28T16:52:43.989Z,4.00
2022-11-28T16:55:46.509Z,4.00
2022-11-28T16:58:18.239Z,3.90
2022-11-28T17:00:52.019Z,3.90
2022-11-28T17:03:45.758Z,3.90
2022-11-28T17:06:22.272Z,3.90
2022-11-28T17:08:51.790Z,3.90
2022-11-28T17:11:24.230Z,3.90
2022-11-28T17:13:55.084Z,3.80
2022-11-28T17:16:28.516Z,3.80
2022-11-28T17:18:57.237Z,3.80
2022-11-28T17:21:35.037Z,3.80
2022-11-28T17:24:04.016Z,3.80
2022-11-28T17:26:32.651Z,3.20
2022-11-28T17:29:01.378Z,3.80
2022-11-28T17:31:30.043Z,3.80
2022-11-28T17:33:58.790Z,3.80
2022-11-28T17:36:29.417Z,3.80
2022-11-28T17:39:03.708Z,3.80
2022-11-28T17:41:34.089Z,3.70
2022-11-28T17:44:02.875Z,3.70
2022-11-28T17:46:31.378Z,3.70
2022-11-28T17:49:00.186Z,3.70
2022-11-28T17:51:30.208Z,3.70
2022-11-28T17:53:59.091Z,3.70
2022-11-28T17:56:27.477Z,3.70
2022-11-28T17:58:55.969Z,3.70
2022-11-28T18:01:28.741Z,3.60
2022-11-28T18:03:57.203Z,3.60
2022-11-28T18:06:25.640Z,3.60
2022-11-28T18:08:55.554Z,3.60
2022-11-28T18:11:24.004Z,3.60
2022-11-28T18:13:52.527Z,3.60
2022-11-28T18:16:23.127Z,3.60
2022-11-28T18:18:55.315Z,3.60
2022-11-28T18:21:23.853Z,3.60
2022-11-28T18:23:52.488Z,3.60
2022-11-28T18:26:25.131Z,3.60
2022-11-28T18:28:54.156Z,3.60
2022-11-28T18:31:25.043Z,3.60
2022-11-28T18:34:00.237Z,3.60
2022-11-28T18:36:31.829Z,3.60
2022-11-28T18:39:04.723Z,3.60
2022-11-28T18:41:34.833Z,3.60
2022-11-28T18:44:05.163Z,3.60
2022-11-28T18:46:34.948Z,3.60
2022-11-28T18:49:03.493Z,3.60
2022-11-28T18:51:33.710Z,3.60
2022-11-28T18:54:04.926Z,3.60
2022-11-28T18:56:35.159Z,3.60
2022-11-28T18:59:04.671Z,3.60
2022-11-28T19:01:35.919Z,3.60
2022-11-28T19:04:07.038Z,3.60
2022-11-28T19:06:37.314Z,3.60
2022-11-28T19:09:08.108Z,3.60
2022-11-28T19:11:37.966Z,3.60
2022-11-28T19:14:08.011Z,3.60
2022-11-28T19:16:38.915Z,3.50
2022-11-28T19:19:11.249Z,3.50
2022-11-28T19:21:41.029Z,3.30
2022-11-28T19:24:12.019Z,3.50
2022-11-28T19:26:42.403Z,3.50
2022-11-28T19:29:10.740Z,3.50
2022-11-28T19:31:40.328Z,2.00
2022-11-28T19:34:12.092Z,3.50
2022-11-28T19:36:42.844Z,3.60
2022-11-28T19:39:18.160Z,3.50
2022-11-28T19:41:48.969Z,3.50
2022-11-28T19:44:17.538Z,3.50
2022-11-28T19:46:46.219Z,3.50
2022-11-28T19:49:19.469Z,3.50
2022-11-28T19:51:49.943Z,3.60
2022-11-28T19:54:21.473Z,3.60
2022-11-28T19:56:51.860Z,3.60
2022-11-28T19:59:20.663Z,3.60
2022-11-28T20:01:50.054Z,3.60
2022-11-28T20:04:19.717Z,3.60
2022-11-28T20:06:54.003Z,3.60
2022-11-28T20:09:22.842Z,3.60
2022-11-28T20:11:52.737Z,3.60
2022-11-28T20:14:21.180Z,3.60
2022-11-28T20:16:49.650Z,3.60
2022-11-28T20:19:18.475Z,3.60
2022-11-28T20:21:47.245Z,3.60
2022-11-28T20:24:16.244Z,3.60
2022-11-28T20:26:45.773Z,3.60
2022-11-28T20:29:17.632Z,3.60
2022-11-28T20:31:47.829Z,3.60
2022-11-28T20:34:17.711Z,3.90
2022-11-28T20:36:46.401Z,3.90
2022-11-28T20:39:14.936Z,3.60
2022-11-28T20:41:43.300Z,3.60
2022-11-28T20:44:12.677Z,3.60
2022-11-28T20:46:44.172Z,3.60
2022-11-28T20:49:12.585Z,3.60
2022-11-28T20:51:41.217Z,3.60
2022-11-28T20:54:09.825Z,3.60
2022-11-28T20:59:29.137Z,3.70
2022-11-28T21:01:59.079Z,3.70
2022-11-28T21:04:27.707Z,3.70
2022-11-28T21:06:56.159Z,3.60
2022-11-28T21:09:25.591Z,3.70
2022-11-28T21:11:59.143Z,3.70
2022-11-28T21:14:29.144Z,3.60
2022-11-28T21:17:01.480Z,3.70
2022-11-28T21:19:32.006Z,3.60
2022-11-28T21:22:00.414Z,3.60
2022-11-28T21:24:29.280Z,3.60
2022-11-28T21:26:57.777Z,3.60
2022-11-28T21:29:26.483Z,3.70
2022-11-28T21:31:55.576Z,3.60
2022-11-28T21:34:25.454Z,3.60
2022-11-28T21:36:59.715Z,3.60
2022-11-28T21:39:29.764Z,3.60
2022-11-28T21:41:58.126Z,3.60
2022-11-28T21:44:26.994Z,3.60
2022-11-28T21:46:55.763Z,3.60
2022-11-28T21:49:28.696Z,3.60
2022-11-28T21:51:57.129Z,3.60
2022-11-28T21:54:25.661Z,3.60
2022-11-28T21:56:54.150Z,3.60
2022-11-28T21:59:23.241Z,3.60
2022-11-28T22:01:51.957Z,3.60
2022-11-28T22:04:24.776Z,3.60
2022-11-28T22:06:54.697Z,3.50
2022-11-28T22:09:23.006Z,2.40
2022-11-28T22:11:51.452Z,3.60
2022-11-28T22:14:19.797Z,3.50
2022-11-28T22:16:48.211Z,3.50
2022-11-28T22:19:16.675Z,3.50
2022-11-28T22:21:53.471Z,3.50
2022-11-28T22:24:27.294Z,3.50
2022-11-28T22:26:56.144Z,3.50
2022-11-28T22:29:24.791Z,3.40
2022-11-28T22:31:53.334Z,3.50
2022-11-28T22:34:22.206Z,3.40
2022-11-28T22:36:50.564Z,3.40
2022-11-28T22:39:19.185Z,3.40
2022-11-28T22:41:48.995Z,3.40
2022-11-28T22:44:18.334Z,3.40
2022-11-28T22:46:46.856Z,4.30
2022-11-28T22:49:15.300Z,3.40
2022-11-28T22:51:43.719Z,3.30
2022-11-28T22:54:14.350Z,3.30
2022-11-28T22:56:44.131Z,3.30
2022-11-28T22:59:16.412Z,3.30
2022-11-28T23:01:44.912Z,3.30
2022-11-28T23:04:13.609Z,3.30
2022-11-28T23:06:42.211Z,3.30
2022-11-28T23:09:13.255Z,3.30
2022-11-28T23:11:41.949Z,3.30
2022-11-28T23:14:15.401Z,3.30
2022-11-28T23:16:45.441Z,3.30
2022-11-28T23:19:16.706Z,3.30
2022-11-28T23:21:47.869Z,3.30
2022-11-28T23:24:18.491Z,3.20
2022-11-28T23:26:47.512Z,3.30
2022-11-28T23:29:18.169Z,3.30
2022-11-28T23:31:47.719Z,3.30
2022-11-28T23:34:16.938Z,3.20
2022-11-28T23:36:47.091Z,3.20
2022-11-28T23:39:17.591Z,4.60
2022-11-28T23:41:46.980Z,3.20
2022-11-28T23:44:19.733Z,3.20
2022-11-28T23:46:49.364Z,3.20
2022-11-28T23:49:18.103Z,3.20
